sensor_id;sensor_type;location;lat;lon;timestamp;P1;durP1;ratioP1;P2;durP2;ratioP2
23838;SDS011;12100;44.384;20.272;2022-12-18T00:00:47;48.15;;;30.08;;
23838;SDS011;12100;44.384;20.272;2022-12-18T00:03:14;51.40;;;31.63;;
23838;SDS011;12100;44.384;20.272;2022-12-18T00:05:47;48.42;;;31.33;;
23838;SDS011;12100;44.384;20.272;2022-12-18T00:08:14;57.70;;;34.65;;
23838;SDS011;12100;44.384;20.272;2022-12-18T00:10:40;49.65;;;33.10;;
23838;SDS011;12100;44.384;20.272;2022-12-18T00:13:06;47.85;;;30.08;;
23838;SDS011;12100;44.384;20.272;2022-12-18T00:15:33;53.28;;;32.65;;
23838;SDS011;12100;44.384;20.272;2022-12-18T00:17:59;47.83;;;30.73;;
23838;SDS011;12100;44.384;20.272;2022-12-18T00:20:25;44.65;;;27.98;;
23838;SDS011;12100;44.384;20.272;2022-12-18T00:22:52;48.40;;;31.55;;
23838;SDS011;12100;44.384;20.272;2022-12-18T00:25:18;46.55;;;30.02;;
23838;SDS011;12100;44.384;20.272;2022-12-18T00:27:44;47.38;;;28.83;;
23838;SDS011;12100;44.384;20.272;2022-12-18T00:30:10;48.90;;;30.20;;
23838;SDS011;12100;44.384;20.272;2022-12-18T00:32:36;46.08;;;31.08;;
23838;SDS011;12100;44.384;20.272;2022-12-18T00:35:02;47.10;;;30.50;;
23838;SDS011;12100;44.384;20.272;2022-12-18T00:37:28;47.15;;;29.00;;
23838;SDS011;12100;44.384;20.272;2022-12-18T00:39:54;49.03;;;31.83;;
23838;SDS011;12100;44.384;20.272;2022-12-18T00:42:20;45.60;;;28.92;;
23838;SDS011;12100;44.384;20.272;2022-12-18T00:45:04;51.05;;;30.40;;
23838;SDS011;12100;44.384;20.272;2022-12-18T00:47:30;49.15;;;31.88;;
23838;SDS011;12100;44.384;20.272;2022-12-18T00:49:56;50.83;;;31.67;;
23838;SDS011;12100;44.384;20.272;2022-12-18T00:52:22;47.78;;;30.40;;
23838;SDS011;12100;44.384;20.272;2022-12-18T00:54:48;48.40;;;30.15;;
23838;SDS011;12100;44.384;20.272;2022-12-18T00:57:13;49.13;;;31.83;;
23838;SDS011;12100;44.384;20.272;2022-12-18T00:59:39;46.30;;;29.35;;
23838;SDS011;12100;44.384;20.272;2022-12-18T01:02:05;47.45;;;30.35;;
23838;SDS011;12100;44.384;20.272;2022-12-18T01:04:31;45.97;;;29.98;;
23838;SDS011;12100;44.384;20.272;2022-12-18T01:06:58;49.53;;;32.58;;
23838;SDS011;12100;44.384;20.272;2022-12-18T01:09:24;45.97;;;30.17;;
23838;SDS011;12100;44.384;20.272;2022-12-18T01:11:49;49.13;;;30.40;;
23838;SDS011;12100;44.384;20.272;2022-12-18T01:14:15;47.65;;;29.88;;
23838;SDS011;12100;44.384;20.272;2022-12-18T01:16:41;46.17;;;28.88;;
23838;SDS011;12100;44.384;20.272;2022-12-18T01:19:07;44.28;;;28.45;;
23838;SDS011;12100;44.384;20.272;2022-12-18T01:21:32;46.45;;;28.08;;
23838;SDS011;12100;44.384;20.272;2022-12-18T01:23:58;51.38;;;29.23;;
23838;SDS011;12100;44.384;20.272;2022-12-18T01:26:24;45.40;;;28.02;;
23838;SDS011;12100;44.384;20.272;2022-12-18T01:28:51;44.45;;;26.50;;
23838;SDS011;12100;44.384;20.272;2022-12-18T01:33:44;44.00;;;26.15;;
23838;SDS011;12100;44.384;20.272;2022-12-18T01:36:14;43.83;;;26.58;;
23838;SDS011;12100;44.384;20.272;2022-12-18T01:38:51;42.42;;;27.48;;
23838;SDS011;12100;44.384;20.272;2022-12-18T01:41:18;44.92;;;26.95;;
23838;SDS011;12100;44.384;20.272;2022-12-18T01:46:14;44.85;;;27.83;;
23838;SDS011;12100;44.384;20.272;2022-12-18T01:48:40;43.72;;;27.13;;
23838;SDS011;12100;44.384;20.272;2022-12-18T01:51:08;46.15;;;26.65;;
23838;SDS011;12100;44.384;20.272;2022-12-18T01:53:36;45.50;;;27.85;;
23838;SDS011;12100;44.384;20.272;2022-12-18T01:56:03;40.47;;;25.65;;
23838;SDS011;12100;44.384;20.272;2022-12-18T01:58:32;45.13;;;25.30;;
23838;SDS011;12100;44.384;20.272;2022-12-18T02:01:20;41.47;;;26.60;;
23838;SDS011;12100;44.384;20.272;2022-12-18T02:03:47;46.42;;;26.85;;
23838;SDS011;12100;44.384;20.272;2022-12-18T02:14:30;41.55;;;26.13;;
23838;SDS011;12100;44.384;20.272;2022-12-18T02:22:51;42.80;;;24.33;;
23838;SDS011;12100;44.384;20.272;2022-12-18T02:28:22;36.67;;;23.67;;
23838;SDS011;12100;44.384;20.272;2022-12-18T02:30:50;38.33;;;23.48;;
23838;SDS011;12100;44.384;20.272;2022-12-18T02:33:21;33.78;;;21.48;;
23838;SDS011;12100;44.384;20.272;2022-12-18T02:35:51;36.45;;;22.60;;
23838;SDS011;12100;44.384;20.272;2022-12-18T02:38:19;38.28;;;23.85;;
23838;SDS011;12100;44.384;20.272;2022-12-18T02:40:45;33.60;;;22.38;;
23838;SDS011;12100;44.384;20.272;2022-12-18T02:43:14;33.00;;;22.33;;
23838;SDS011;12100;44.384;20.272;2022-12-18T02:48:47;36.25;;;22.00;;
23838;SDS011;12100;44.384;20.272;2022-12-18T02:51:17;36.58;;;22.58;;
23838;SDS011;12100;44.384;20.272;2022-12-18T02:54:09;35.35;;;22.88;;
23838;SDS011;12100;44.384;20.272;2022-12-18T02:56:47;36.15;;;22.67;;
23838;SDS011;12100;44.384;20.272;2022-12-18T02:59:18;34.85;;;21.63;;
23838;SDS011;12100;44.384;20.272;2022-12-18T03:07:04;34.80;;;21.63;;
23838;SDS011;12100;44.384;20.272;2022-12-18T03:09:37;37.50;;;23.67;;
23838;SDS011;12100;44.384;20.272;2022-12-18T03:12:10;36.90;;;21.33;;
23838;SDS011;12100;44.384;20.272;2022-12-18T03:17:30;37.40;;;23.42;;
23838;SDS011;12100;44.384;20.272;2022-12-18T03:20:00;35.42;;;22.92;;
23838;SDS011;12100;44.384;20.272;2022-12-18T03:22:31;37.30;;;22.08;;
23838;SDS011;12100;44.384;20.272;2022-12-18T03:25:00;38.97;;;23.30;;
23838;SDS011;12100;44.384;20.272;2022-12-18T03:27:29;41.90;;;23.38;;
23838;SDS011;12100;44.384;20.272;2022-12-18T03:30:05;39.55;;;22.63;;
23838;SDS011;12100;44.384;20.272;2022-12-18T03:32:44;36.15;;;22.75;;
23838;SDS011;12100;44.384;20.272;2022-12-18T03:35:12;38.45;;;22.35;;
23838;SDS011;12100;44.384;20.272;2022-12-18T03:37:41;36.33;;;22.70;;
23838;SDS011;12100;44.384;20.272;2022-12-18T03:40:07;40.72;;;23.38;;
23838;SDS011;12100;44.384;20.272;2022-12-18T03:47:34;40.92;;;23.20;;
23838;SDS011;12100;44.384;20.272;2022-12-18T03:53:16;38.35;;;23.25;;
23838;SDS011;12100;44.384;20.272;2022-12-18T03:55:50;39.30;;;22.90;;
23838;SDS011;12100;44.384;20.272;2022-12-18T03:58:17;35.90;;;22.95;;
23838;SDS011;12100;44.384;20.272;2022-12-18T04:00:47;37.42;;;22.60;;
23838;SDS011;12100;44.384;20.272;2022-12-18T04:03:16;40.38;;;24.83;;
23838;SDS011;12100;44.384;20.272;2022-12-18T04:05:44;38.97;;;23.02;;
23838;SDS011;12100;44.384;20.272;2022-12-18T04:08:13;39.03;;;23.02;;
23838;SDS011;12100;44.384;20.272;2022-12-18T04:10:39;38.47;;;23.33;;
23838;SDS011;12100;44.384;20.272;2022-12-18T04:13:05;41.95;;;24.85;;
23838;SDS011;12100;44.384;20.272;2022-12-18T04:15:34;45.55;;;26.05;;
23838;SDS011;12100;44.384;20.272;2022-12-18T04:18:01;40.72;;;25.08;;
23838;SDS011;12100;44.384;20.272;2022-12-18T04:20:27;40.78;;;25.00;;
23838;SDS011;12100;44.384;20.272;2022-12-18T04:22:53;38.30;;;22.80;;
23838;SDS011;12100;44.384;20.272;2022-12-18T04:25:19;39.10;;;23.05;;
23838;SDS011;12100;44.384;20.272;2022-12-18T04:27:44;40.58;;;23.70;;
23838;SDS011;12100;44.384;20.272;2022-12-18T04:30:10;40.75;;;23.92;;
23838;SDS011;12100;44.384;20.272;2022-12-18T04:32:36;39.28;;;23.20;;
23838;SDS011;12100;44.384;20.272;2022-12-18T04:35:02;40.97;;;24.42;;
23838;SDS011;12100;44.384;20.272;2022-12-18T04:37:31;42.28;;;24.83;;
23838;SDS011;12100;44.384;20.272;2022-12-18T04:39:57;37.70;;;22.83;;
23838;SDS011;12100;44.384;20.272;2022-12-18T04:42:23;38.47;;;24.63;;
23838;SDS011;12100;44.384;20.272;2022-12-18T04:44:48;41.90;;;25.02;;
23838;SDS011;12100;44.384;20.272;2022-12-18T04:47:15;38.35;;;24.05;;
23838;SDS011;12100;44.384;20.272;2022-12-18T04:49:41;39.15;;;24.20;;
23838;SDS011;12100;44.384;20.272;2022-12-18T04:52:07;42.50;;;23.17;;
23838;SDS011;12100;44.384;20.272;2022-12-18T04:54:33;39.13;;;23.17;;
23838;SDS011;12100;44.384;20.272;2022-12-18T04:56:58;44.30;;;25.73;;
23838;SDS011;12100;44.384;20.272;2022-12-18T04:59:24;42.05;;;25.42;;
23838;SDS011;12100;44.384;20.272;2022-12-18T05:01:50;40.85;;;24.92;;
23838;SDS011;12100;44.384;20.272;2022-12-18T05:04:16;40.00;;;24.52;;
23838;SDS011;12100;44.384;20.272;2022-12-18T05:06:41;46.75;;;25.20;;
23838;SDS011;12100;44.384;20.272;2022-12-18T05:09:07;42.55;;;25.55;;
23838;SDS011;12100;44.384;20.272;2022-12-18T05:11:33;45.20;;;25.75;;
23838;SDS011;12100;44.384;20.272;2022-12-18T05:13:59;42.55;;;25.48;;
23838;SDS011;12100;44.384;20.272;2022-12-18T05:16:24;44.72;;;25.35;;
23838;SDS011;12100;44.384;20.272;2022-12-18T05:18:50;47.92;;;27.00;;
23838;SDS011;12100;44.384;20.272;2022-12-18T05:21:16;43.55;;;25.55;;
23838;SDS011;12100;44.384;20.272;2022-12-18T05:23:42;43.83;;;26.10;;
23838;SDS011;12100;44.384;20.272;2022-12-18T05:26:07;44.25;;;26.77;;
23838;SDS011;12100;44.384;20.272;2022-12-18T05:28:36;45.58;;;25.75;;
23838;SDS011;12100;44.384;20.272;2022-12-18T05:31:02;44.75;;;25.75;;
23838;SDS011;12100;44.384;20.272;2022-12-18T05:33:30;41.88;;;24.58;;
23838;SDS011;12100;44.384;20.272;2022-12-18T05:35:58;39.65;;;23.70;;
23838;SDS011;12100;44.384;20.272;2022-12-18T05:38:26;41.92;;;23.52;;
23838;SDS011;12100;44.384;20.272;2022-12-18T05:40:53;42.35;;;24.67;;
23838;SDS011;12100;44.384;20.272;2022-12-18T05:43:19;43.97;;;24.77;;
23838;SDS011;12100;44.384;20.272;2022-12-18T05:45:47;40.33;;;23.67;;
23838;SDS011;12100;44.384;20.272;2022-12-18T05:48:13;37.10;;;22.33;;
23838;SDS011;12100;44.384;20.272;2022-12-18T05:50:40;36.78;;;21.95;;
23838;SDS011;12100;44.384;20.272;2022-12-18T05:53:08;41.85;;;23.67;;
23838;SDS011;12100;44.384;20.272;2022-12-18T05:55:36;39.40;;;22.85;;
23838;SDS011;12100;44.384;20.272;2022-12-18T05:58:03;39.35;;;23.10;;
23838;SDS011;12100;44.384;20.272;2022-12-18T06:00:30;37.35;;;22.65;;
23838;SDS011;12100;44.384;20.272;2022-12-18T06:02:58;37.28;;;21.48;;
23838;SDS011;12100;44.384;20.272;2022-12-18T06:05:24;38.20;;;22.58;;
23838;SDS011;12100;44.384;20.272;2022-12-18T06:07:50;32.20;;;18.95;;
23838;SDS011;12100;44.384;20.272;2022-12-18T06:10:16;35.45;;;20.40;;
23838;SDS011;12100;44.384;20.272;2022-12-18T06:12:42;34.85;;;20.85;;
23838;SDS011;12100;44.384;20.272;2022-12-18T06:15:08;39.03;;;22.85;;
23838;SDS011;12100;44.384;20.272;2022-12-18T06:17:34;36.60;;;21.77;;
23838;SDS011;12100;44.384;20.272;2022-12-18T06:20:00;33.05;;;19.52;;
23838;SDS011;12100;44.384;20.272;2022-12-18T06:22:26;31.65;;;18.23;;
23838;SDS011;12100;44.384;20.272;2022-12-18T06:24:52;34.95;;;20.40;;
23838;SDS011;12100;44.384;20.272;2022-12-18T06:27:18;33.22;;;19.88;;
23838;SDS011;12100;44.384;20.272;2022-12-18T06:29:44;34.42;;;20.50;;
23838;SDS011;12100;44.384;20.272;2022-12-18T06:32:10;30.63;;;18.17;;
23838;SDS011;12100;44.384;20.272;2022-12-18T06:34:39;33.80;;;20.17;;
23838;SDS011;12100;44.384;20.272;2022-12-18T06:37:05;33.00;;;20.42;;
23838;SDS011;12100;44.384;20.272;2022-12-18T06:39:30;31.80;;;19.58;;
23838;SDS011;12100;44.384;20.272;2022-12-18T06:41:56;32.92;;;20.20;;
23838;SDS011;12100;44.384;20.272;2022-12-18T06:44:22;32.80;;;20.40;;
23838;SDS011;12100;44.384;20.272;2022-12-18T06:46:48;30.58;;;18.88;;
23838;SDS011;12100;44.384;20.272;2022-12-18T06:49:14;31.65;;;19.13;;
23838;SDS011;12100;44.384;20.272;2022-12-18T06:51:41;35.47;;;20.85;;
23838;SDS011;12100;44.384;20.272;2022-12-18T06:54:07;29.60;;;18.10;;
23838;SDS011;12100;44.384;20.272;2022-12-18T06:56:33;30.75;;;19.75;;
23838;SDS011;12100;44.384;20.272;2022-12-18T06:58:59;30.17;;;18.50;;
23838;SDS011;12100;44.384;20.272;2022-12-18T07:01:25;31.67;;;19.50;;
23838;SDS011;12100;44.384;20.272;2022-12-18T07:03:52;30.08;;;19.25;;
23838;SDS011;12100;44.384;20.272;2022-12-18T07:06:19;29.15;;;18.25;;
23838;SDS011;12100;44.384;20.272;2022-12-18T07:08:48;31.25;;;18.52;;
23838;SDS011;12100;44.384;20.272;2022-12-18T07:11:14;33.15;;;18.90;;
23838;SDS011;12100;44.384;20.272;2022-12-18T07:13:41;29.95;;;18.83;;
23838;SDS011;12100;44.384;20.272;2022-12-18T07:16:17;33.13;;;19.42;;
23838;SDS011;12100;44.384;20.272;2022-12-18T07:18:44;32.58;;;19.80;;
23838;SDS011;12100;44.384;20.272;2022-12-18T07:21:11;32.40;;;19.25;;
23838;SDS011;12100;44.384;20.272;2022-12-18T07:23:38;34.30;;;20.48;;
23838;SDS011;12100;44.384;20.272;2022-12-18T07:26:05;31.98;;;19.80;;
23838;SDS011;12100;44.384;20.272;2022-12-18T07:28:34;33.63;;;19.27;;
23838;SDS011;12100;44.384;20.272;2022-12-18T07:31:04;33.92;;;20.35;;
23838;SDS011;12100;44.384;20.272;2022-12-18T07:33:32;34.22;;;20.85;;
23838;SDS011;12100;44.384;20.272;2022-12-18T07:35:59;31.77;;;18.90;;
23838;SDS011;12100;44.384;20.272;2022-12-18T07:38:26;30.60;;;19.38;;
23838;SDS011;12100;44.384;20.272;2022-12-18T07:40:52;33.80;;;20.23;;
23838;SDS011;12100;44.384;20.272;2022-12-18T07:43:18;31.25;;;19.15;;
23838;SDS011;12100;44.384;20.272;2022-12-18T07:45:43;32.30;;;19.80;;
23838;SDS011;12100;44.384;20.272;2022-12-18T07:48:09;41.30;;;21.50;;
23838;SDS011;12100;44.384;20.272;2022-12-18T07:50:35;32.92;;;20.02;;
23838;SDS011;12100;44.384;20.272;2022-12-18T07:53:02;33.25;;;20.60;;
23838;SDS011;12100;44.384;20.272;2022-12-18T07:55:30;33.88;;;21.15;;
23838;SDS011;12100;44.384;20.272;2022-12-18T07:57:56;38.25;;;24.40;;
23838;SDS011;12100;44.384;20.272;2022-12-18T08:00:25;58.47;;;41.17;;
23838;SDS011;12100;44.384;20.272;2022-12-18T08:02:51;45.15;;;27.88;;
23838;SDS011;12100;44.384;20.272;2022-12-18T08:05:17;35.45;;;22.98;;
23838;SDS011;12100;44.384;20.272;2022-12-18T08:07:43;34.28;;;19.77;;
23838;SDS011;12100;44.384;20.272;2022-12-18T08:10:08;35.17;;;20.65;;
23838;SDS011;12100;44.384;20.272;2022-12-18T08:12:34;38.15;;;24.02;;
23838;SDS011;12100;44.384;20.272;2022-12-18T08:15:01;45.33;;;31.33;;
23838;SDS011;12100;44.384;20.272;2022-12-18T08:17:28;42.97;;;27.98;;
23838;SDS011;12100;44.384;20.272;2022-12-18T08:19:54;39.00;;;25.27;;
23838;SDS011;12100;44.384;20.272;2022-12-18T08:22:19;36.38;;;22.85;;
23838;SDS011;12100;44.384;20.272;2022-12-18T08:24:45;41.17;;;23.38;;
23838;SDS011;12100;44.384;20.272;2022-12-18T08:27:11;34.38;;;22.35;;
23838;SDS011;12100;44.384;20.272;2022-12-18T08:29:37;36.47;;;21.63;;
23838;SDS011;12100;44.384;20.272;2022-12-18T08:32:03;36.55;;;22.00;;
23838;SDS011;12100;44.384;20.272;2022-12-18T08:34:29;35.20;;;21.70;;
23838;SDS011;12100;44.384;20.272;2022-12-18T08:36:55;33.20;;;19.65;;
23838;SDS011;12100;44.384;20.272;2022-12-18T08:39:20;36.55;;;22.63;;
23838;SDS011;12100;44.384;20.272;2022-12-18T08:41:46;33.35;;;21.02;;
23838;SDS011;12100;44.384;20.272;2022-12-18T08:44:32;35.05;;;20.35;;
23838;SDS011;12100;44.384;20.272;2022-12-18T08:47:06;37.67;;;22.88;;
23838;SDS011;12100;44.384;20.272;2022-12-18T08:49:33;36.10;;;21.90;;
23838;SDS011;12100;44.384;20.272;2022-12-18T08:51:59;31.40;;;21.58;;
23838;SDS011;12100;44.384;20.272;2022-12-18T08:54:28;34.72;;;23.52;;
23838;SDS011;12100;44.384;20.272;2022-12-18T08:56:54;32.58;;;21.33;;
23838;SDS011;12100;44.384;20.272;2022-12-18T08:59:20;31.95;;;21.48;;
23838;SDS011;12100;44.384;20.272;2022-12-18T09:01:46;37.47;;;23.95;;
23838;SDS011;12100;44.384;20.272;2022-12-18T09:04:13;33.47;;;20.55;;
23838;SDS011;12100;44.384;20.272;2022-12-18T09:06:39;36.42;;;23.15;;
23838;SDS011;12100;44.384;20.272;2022-12-18T09:09:05;40.25;;;24.27;;
23838;SDS011;12100;44.384;20.272;2022-12-18T09:11:31;38.15;;;23.30;;
23838;SDS011;12100;44.384;20.272;2022-12-18T09:13:59;40.63;;;25.27;;
23838;SDS011;12100;44.384;20.272;2022-12-18T09:16:26;43.08;;;28.33;;
23838;SDS011;12100;44.384;20.272;2022-12-18T09:18:56;46.53;;;28.15;;
23838;SDS011;12100;44.384;20.272;2022-12-18T09:21:25;35.40;;;24.38;;
23838;SDS011;12100;44.384;20.272;2022-12-18T09:23:53;35.88;;;23.73;;
23838;SDS011;12100;44.384;20.272;2022-12-18T09:26:24;70.30;;;44.90;;
23838;SDS011;12100;44.384;20.272;2022-12-18T09:28:50;81.88;;;47.83;;
23838;SDS011;12100;44.384;20.272;2022-12-18T09:31:17;218.30;;;131.63;;
23838;SDS011;12100;44.384;20.272;2022-12-18T09:33:45;78.13;;;47.53;;
23838;SDS011;12100;44.384;20.272;2022-12-18T09:36:12;60.55;;;39.28;;
23838;SDS011;12100;44.384;20.272;2022-12-18T09:38:40;53.08;;;36.45;;
23838;SDS011;12100;44.384;20.272;2022-12-18T09:44:01;38.85;;;24.95;;
23838;SDS011;12100;44.384;20.272;2022-12-18T09:46:36;48.40;;;33.35;;
23838;SDS011;12100;44.384;20.272;2022-12-18T09:51:39;56.75;;;33.63;;
23838;SDS011;12100;44.384;20.272;2022-12-18T09:54:14;45.58;;;30.77;;
23838;SDS011;12100;44.384;20.272;2022-12-18T09:56:43;40.92;;;26.15;;
23838;SDS011;12100;44.384;20.272;2022-12-18T09:59:23;35.53;;;22.50;;
23838;SDS011;12100;44.384;20.272;2022-12-18T10:01:52;36.33;;;23.08;;
23838;SDS011;12100;44.384;20.272;2022-12-18T10:04:18;33.80;;;21.55;;
23838;SDS011;12100;44.384;20.272;2022-12-18T10:07:31;31.23;;;21.35;;
23838;SDS011;12100;44.384;20.272;2022-12-18T10:12:23;46.42;;;29.88;;
23838;SDS011;12100;44.384;20.272;2022-12-18T10:15:15;37.88;;;24.02;;
23838;SDS011;12100;44.384;20.272;2022-12-18T10:17:58;35.33;;;23.17;;
23838;SDS011;12100;44.384;20.272;2022-12-18T10:20:42;32.63;;;22.65;;
23838;SDS011;12100;44.384;20.272;2022-12-18T10:23:25;40.50;;;28.73;;
23838;SDS011;12100;44.384;20.272;2022-12-18T10:26:00;34.90;;;23.10;;
23838;SDS011;12100;44.384;20.272;2022-12-18T10:28:27;33.70;;;20.90;;
23838;SDS011;12100;44.384;20.272;2022-12-18T10:30:56;30.15;;;19.33;;
23838;SDS011;12100;44.384;20.272;2022-12-18T10:33:23;33.10;;;20.52;;
23838;SDS011;12100;44.384;20.272;2022-12-18T10:35:52;34.17;;;20.00;;
23838;SDS011;12100;44.384;20.272;2022-12-18T10:38:24;34.22;;;20.42;;
23838;SDS011;12100;44.384;20.272;2022-12-18T10:40:53;32.78;;;21.23;;
23838;SDS011;12100;44.384;20.272;2022-12-18T10:43:21;60.72;;;37.63;;
23838;SDS011;12100;44.384;20.272;2022-12-18T10:48:55;152.40;;;91.03;;
23838;SDS011;12100;44.384;20.272;2022-12-18T10:51:24;40.70;;;28.85;;
23838;SDS011;12100;44.384;20.272;2022-12-18T10:54:02;36.50;;;24.25;;
23838;SDS011;12100;44.384;20.272;2022-12-18T10:56:31;35.35;;;20.75;;
23838;SDS011;12100;44.384;20.272;2022-12-18T10:59:03;45.17;;;26.25;;
23838;SDS011;12100;44.384;20.272;2022-12-18T11:01:55;33.60;;;19.92;;
23838;SDS011;12100;44.384;20.272;2022-12-18T11:04:25;54.30;;;25.73;;
23838;SDS011;12100;44.384;20.272;2022-12-18T11:06:56;82.55;;;44.25;;
23838;SDS011;12100;44.384;20.272;2022-12-18T11:12:01;63.97;;;42.42;;
23838;SDS011;12100;44.384;20.272;2022-12-18T11:14:34;59.78;;;41.17;;
23838;SDS011;12100;44.384;20.272;2022-12-18T11:17:42;189.35;;;122.32;;
23838;SDS011;12100;44.384;20.272;2022-12-18T11:20:02;151.60;;;99.18;;
23838;SDS011;12100;44.384;20.272;2022-12-18T11:22:55;160.60;;;109.60;;
23838;SDS011;12100;44.384;20.272;2022-12-18T11:25:23;94.28;;;75.32;;
23838;SDS011;12100;44.384;20.272;2022-12-18T11:31:12;82.72;;;59.25;;
23838;SDS011;12100;44.384;20.272;2022-12-18T11:33:42;154.40;;;124.80;;
23838;SDS011;12100;44.384;20.272;2022-12-18T11:36:14;107.47;;;96.22;;
23838;SDS011;12100;44.384;20.272;2022-12-18T11:38:41;67.97;;;60.85;;
23838;SDS011;12100;44.384;20.272;2022-12-18T11:44:14;59.78;;;43.45;;
23838;SDS011;12100;44.384;20.272;2022-12-18T11:46:49;208.15;;;144.63;;
23838;SDS011;12100;44.384;20.272;2022-12-18T11:49:38;81.85;;;55.60;;
23838;SDS011;12100;44.384;20.272;2022-12-18T11:52:16;64.70;;;45.22;;
23838;SDS011;12100;44.384;20.272;2022-12-18T11:54:52;74.70;;;50.35;;
23838;SDS011;12100;44.384;20.272;2022-12-18T11:57:38;88.95;;;55.15;;
23838;SDS011;12100;44.384;20.272;2022-12-18T12:00:19;125.40;;;72.18;;
23838;SDS011;12100;44.384;20.272;2022-12-18T12:03:11;71.97;;;46.67;;
23838;SDS011;12100;44.384;20.272;2022-12-18T12:09:04;126.35;;;78.30;;
23838;SDS011;12100;44.384;20.272;2022-12-18T12:28:04;152.55;;;83.88;;
23838;SDS011;12100;44.384;20.272;2022-12-18T12:30:43;130.02;;;66.82;;
23838;SDS011;12100;44.384;20.272;2022-12-18T12:39:13;222.18;;;121.93;;
23838;SDS011;12100;44.384;20.272;2022-12-18T12:41:42;92.47;;;57.35;;
23838;SDS011;12100;44.384;20.272;2022-12-18T12:44:41;137.07;;;85.65;;
23838;SDS011;12100;44.384;20.272;2022-12-18T12:47:14;43.15;;;27.90;;
23838;SDS011;12100;44.384;20.272;2022-12-18T12:49:56;41.47;;;27.33;;
23838;SDS011;12100;44.384;20.272;2022-12-18T12:54:54;45.30;;;32.97;;
23838;SDS011;12100;44.384;20.272;2022-12-18T12:57:23;227.48;;;102.72;;
23838;SDS011;12100;44.384;20.272;2022-12-18T12:59:58;260.77;;;100.05;;
23838;SDS011;12100;44.384;20.272;2022-12-18T13:05:20;254.52;;;95.10;;
23838;SDS011;12100;44.384;20.272;2022-12-18T13:08:07;467.70;;;191.35;;
23838;SDS011;12100;44.384;20.272;2022-12-18T13:13:05;1299.72;;;550.75;;
23838;SDS011;12100;44.384;20.272;2022-12-18T13:15:47;826.47;;;340.20;;
23838;SDS011;12100;44.384;20.272;2022-12-18T13:18:28;180.38;;;105.13;;
23838;SDS011;12100;44.384;20.272;2022-12-18T13:25:52;581.67;;;174.35;;
23838;SDS011;12100;44.384;20.272;2022-12-18T13:36:43;104.75;;;43.28;;
23838;SDS011;12100;44.384;20.272;2022-12-18T13:41:48;256.88;;;91.70;;
23838;SDS011;12100;44.384;20.272;2022-12-18T13:46:57;195.02;;;101.05;;
23838;SDS011;12100;44.384;20.272;2022-12-18T13:49:25;55.63;;;36.83;;
23838;SDS011;12100;44.384;20.272;2022-12-18T13:51:55;46.00;;;35.40;;
23838;SDS011;12100;44.384;20.272;2022-12-18T13:54:28;67.03;;;45.00;;
23838;SDS011;12100;44.384;20.272;2022-12-18T13:57:00;60.80;;;37.65;;
23838;SDS011;12100;44.384;20.272;2022-12-18T14:00:14;79.95;;;47.85;;
23838;SDS011;12100;44.384;20.272;2022-12-18T14:02:24;65.37;;;41.83;;
23838;SDS011;12100;44.384;20.272;2022-12-18T14:04:51;57.50;;;40.00;;
23838;SDS011;12100;44.384;20.272;2022-12-18T14:09:48;48.75;;;31.92;;
23838;SDS011;12100;44.384;20.272;2022-12-18T14:12:22;53.17;;;35.47;;
23838;SDS011;12100;44.384;20.272;2022-12-18T14:20:45;42.70;;;28.45;;
23838;SDS011;12100;44.384;20.272;2022-12-18T14:26:19;55.67;;;35.72;;
23838;SDS011;12100;44.384;20.272;2022-12-18T14:28:48;59.95;;;41.05;;
23838;SDS011;12100;44.384;20.272;2022-12-18T14:31:17;43.72;;;30.77;;
23838;SDS011;12100;44.384;20.272;2022-12-18T14:33:44;38.75;;;27.83;;
23838;SDS011;12100;44.384;20.272;2022-12-18T14:36:20;37.58;;;24.15;;
23838;SDS011;12100;44.384;20.272;2022-12-18T14:38:52;34.85;;;24.27;;
23838;SDS011;12100;44.384;20.272;2022-12-18T14:41:20;45.85;;;26.52;;
23838;SDS011;12100;44.384;20.272;2022-12-18T14:43:47;43.60;;;27.50;;
23838;SDS011;12100;44.384;20.272;2022-12-18T14:52:20;39.20;;;25.48;;
23838;SDS011;12100;44.384;20.272;2022-12-18T14:54:52;39.22;;;26.40;;
23838;SDS011;12100;44.384;20.272;2022-12-18T14:57:30;39.90;;;25.20;;
23838;SDS011;12100;44.384;20.272;2022-12-18T15:00:05;51.15;;;35.10;;
23838;SDS011;12100;44.384;20.272;2022-12-18T15:02:34;50.50;;;34.85;;
23838;SDS011;12100;44.384;20.272;2022-12-18T15:07:39;58.30;;;41.30;;
23838;SDS011;12100;44.384;20.272;2022-12-18T15:10:14;38.70;;;26.23;;
23838;SDS011;12100;44.384;20.272;2022-12-18T15:18:11;45.15;;;29.92;;
23838;SDS011;12100;44.384;20.272;2022-12-18T15:26:12;38.28;;;25.42;;
23838;SDS011;12100;44.384;20.272;2022-12-18T15:33:39;47.58;;;27.10;;
23838;SDS011;12100;44.384;20.272;2022-12-18T15:36:15;43.60;;;26.92;;
23838;SDS011;12100;44.384;20.272;2022-12-18T15:38:45;53.60;;;29.90;;
23838;SDS011;12100;44.384;20.272;2022-12-18T15:41:15;64.30;;;36.63;;
23838;SDS011;12100;44.384;20.272;2022-12-18T15:43:46;56.60;;;32.10;;
23838;SDS011;12100;44.384;20.272;2022-12-18T15:46:15;48.40;;;30.17;;
23838;SDS011;12100;44.384;20.272;2022-12-18T15:48:43;59.22;;;35.25;;
23838;SDS011;12100;44.384;20.272;2022-12-18T15:51:17;55.63;;;29.95;;
23838;SDS011;12100;44.384;20.272;2022-12-18T15:54:03;44.63;;;28.38;;
23838;SDS011;12100;44.384;20.272;2022-12-18T15:56:31;39.25;;;26.50;;
23838;SDS011;12100;44.384;20.272;2022-12-18T15:59:17;315.13;;;164.93;;
23838;SDS011;12100;44.384;20.272;2022-12-18T16:01:47;124.88;;;77.32;;
23838;SDS011;12100;44.384;20.272;2022-12-18T16:04:15;132.70;;;91.93;;
23838;SDS011;12100;44.384;20.272;2022-12-18T16:06:45;166.90;;;140.38;;
23838;SDS011;12100;44.384;20.272;2022-12-18T16:09:11;71.22;;;53.63;;
23838;SDS011;12100;44.384;20.272;2022-12-18T16:11:37;94.32;;;60.42;;
23838;SDS011;12100;44.384;20.272;2022-12-18T16:16:42;103.68;;;78.60;;
23838;SDS011;12100;44.384;20.272;2022-12-18T16:19:08;45.05;;;27.70;;
23838;SDS011;12100;44.384;20.272;2022-12-18T16:21:34;51.30;;;32.10;;
23838;SDS011;12100;44.384;20.272;2022-12-18T16:24:00;48.63;;;33.75;;
23838;SDS011;12100;44.384;20.272;2022-12-18T16:26:26;44.42;;;28.27;;
23838;SDS011;12100;44.384;20.272;2022-12-18T16:28:52;49.15;;;32.05;;
23838;SDS011;12100;44.384;20.272;2022-12-18T16:31:18;114.45;;;64.53;;
23838;SDS011;12100;44.384;20.272;2022-12-18T16:33:44;41.25;;;25.27;;
23838;SDS011;12100;44.384;20.272;2022-12-18T16:36:10;119.90;;;70.90;;
23838;SDS011;12100;44.384;20.272;2022-12-18T16:38:36;120.05;;;70.03;;
23838;SDS011;12100;44.384;20.272;2022-12-18T16:41:01;59.80;;;36.22;;
23838;SDS011;12100;44.384;20.272;2022-12-18T16:43:56;152.30;;;84.85;;
23838;SDS011;12100;44.384;20.272;2022-12-18T16:46:23;150.13;;;81.28;;
23838;SDS011;12100;44.384;20.272;2022-12-18T16:48:49;93.13;;;50.67;;
23838;SDS011;12100;44.384;20.272;2022-12-18T16:51:15;196.68;;;106.15;;